Time;durP1;ratioP1;P1;durP2;ratioP2;P2;SDS_P1;SDS_P2;PMS_P1;PMS_P2;Temp;Humidity;BMP_temperature;BMP_pressure;BME280_temperature;BME280_humidity;BME280_pressure;Samples;Min_cycle;Max_cycle;Signal;HPM_P1;HPM_P2
2023/05/17 00:00:17;;;;;;;17.07;15.67;;;;;;;21.09;52.03;94440.25;6109178;28;109967;-71
2023/05/17 00:03:20;;;;;;;16.93;15.37;;;;;;;21.09;52.19;94449.00;6102832;28;108699;-71
2023/05/17 00:06:23;;;;;;;17.13;15.43;;;;;;;21.06;51.53;94448.84;6108237;28;108925;-71
2023/05/17 00:09:27;;;;;;;17.10;15.30;;;;;;;21.09;51.46;94458.88;6112945;28;108936;-71
2023/05/17 00:12:30;;;;;;;16.50;14.90;;;;;;;21.05;51.82;94447.28;6102253;28;108844;-71
2023/05/17 00:15:34;;;;;;;17.27;15.67;;;;;;;21.08;52.21;94436.03;6112820;28;108976;-70
2023/05/17 00:18:38;;;;;;;17.13;15.43;;;;;;;21.04;51.50;94430.53;6113700;28;109096;-71
2023/05/17 00:21:41;;;;;;;15.87;14.30;;;;;;;21.05;51.64;94426.78;6112884;28;108954;-71
2023/05/17 00:24:44;;;;;;;16.13;14.63;;;;;;;21.07;51.64;94429.13;6101661;28;109433;-71
2023/05/17 00:27:47;;;;;;;16.27;14.77;;;;;;;21.07;51.75;94439.78;6110777;28;108873;-71
2023/05/17 00:30:52;;;;;;;16.87;15.30;;;;;;;21.04;52.11;94448.38;6110809;28;108932;-73
2023/05/17 00:33:55;;;;;;;17.20;15.60;;;;;;;21.03;51.36;94452.91;6107631;28;109079;-71
2023/05/17 00:36:58;;;;;;;15.40;13.90;;;;;;;21.04;51.86;94451.03;6104586;28;109124;-72
2023/05/17 00:40:04;;;;;;;15.77;14.37;;;;;;;21.02;51.56;94450.56;6114726;28;109024;-71
2023/05/17 00:43:07;;;;;;;15.17;13.70;;;;;;;20.99;52.16;94443.97;6112089;28;108867;-71
2023/05/17 00:46:11;;;;;;;15.33;14.03;;;;;;;21.03;51.92;94454.78;6101936;28;109212;-71
2023/05/17 00:49:15;;;;;;;15.43;14.10;;;;;;;21.02;51.74;94458.53;6126882;28;109027;-71
2023/05/17 00:52:18;;;;;;;15.20;13.80;;;;;;;21.02;51.77;94450.56;6107335;28;108934;-70
2023/05/17 00:55:21;;;;;;;14.07;12.77;;;;;;;21.00;51.89;94461.47;6112299;28;109039;-70
2023/05/17 00:58:25;;;;;;;15.40;13.90;;;;;;;21.00;51.56;94466.81;6099812;28;109418;-71
2023/05/17 01:01:30;;;;;;;15.40;13.90;;;;;;;20.98;51.79;94454.91;6111243;28;108893;-72
2023/05/17 01:04:33;;;;;;;15.30;13.80;;;;;;;20.99;51.83;94459.91;6111411;28;108931;-72
2023/05/17 01:07:36;;;;;;;15.40;14.10;;;;;;;20.97;51.62;94464.00;6112149;28;108913;-71
2023/05/17 01:10:50;;;;;;;15.93;14.33;;;;;;;20.97;51.74;94461.34;6113742;28;109326;-70
2023/05/17 01:14:00;;;;;;;14.90;13.60;;;;;;;20.96;51.53;94462.44;6125621;28;108829;-71
2023/05/17 01:17:07;;;;;;;15.33;13.73;;;;;;;20.92;51.35;94448.97;6114925;28;108986;-71
2023/05/17 01:20:14;;;;;;;13.90;12.60;;;;;;;;;;6101190;28;108885;-71
2023/05/17 01:23:35;;;;;;;14.73;13.23;;;;;;;20.93;51.35;94464.63;6111787;28;108967;-70
2023/05/17 01:26:43;;;;;;;14.00;12.60;;;;;;;20.93;51.68;94456.63;6111039;28;108898;-71
2023/05/17 01:29:49;;;;;;;13.20;12.00;;;;;;;20.96;51.66;94454.44;6110005;28;108899;-70
2023/05/17 01:32:56;;;;;;;12.43;11.33;;;;;;;20.86;51.60;94444.91;6103533;28;108889;-69
2023/05/17 01:35:59;;;;;;;13.40;12.10;;;;;;;20.93;51.64;94461.19;6111294;28;109226;-69
2023/05/17 01:39:03;;;;;;;13.83;12.53;;;;;;;20.90;51.33;94459.94;6109290;28;109902;-70
2023/05/17 01:42:20;;;;;;;13.03;11.93;;;;;;;20.88;51.09;94448.03;6110172;28;109047;-71
2023/05/17 01:45:24;;;;;;;12.87;11.70;;;;;;;;;;6091241;28;109161;-70
2023/05/17 01:48:35;;;;;;;14.20;12.90;;;;;;;20.92;51.61;94448.97;6111343;28;108953;-70
2023/05/17 01:51:47;;;;;;;13.17;11.87;;;;;;;20.89;51.70;94449.59;6109549;28;108730;-70
2023/05/17 01:54:54;;;;;;;13.40;12.00;;;;;;;20.89;51.47;94446.94;6101361;28;109196;-69
2023/05/17 01:58:00;;;;;;;13.50;12.27;;;;;;;20.88;51.65;94443.50;6111588;28;108961;-70
2023/05/17 02:01:04;;;;;;;13.77;12.53;;;;;;;20.86;51.50;94442.25;6111179;28;108656;-70
2023/05/17 02:04:09;;;;;;;12.27;10.90;;;;;;;20.83;51.34;94440.97;6099775;28;108990;-70
2023/05/17 02:07:13;;;;;;;13.17;11.83;;;;;;;20.86;51.29;94445.69;6077353;28;108933;-70
2023/05/17 02:10:16;;;;;;;12.40;11.20;;;;;;;20.85;51.92;94441.47;6107062;28;108927;-71
2023/05/17 02:13:21;;;;;;;12.03;11.03;;;;;;;20.83;51.85;94446.28;6111132;28;108917;-71
2023/05/17 02:16:24;;;;;;;13.73;11.23;;;;;;;20.82;51.63;94439.41;6106264;28;109057;-71
2023/05/17 02:19:27;;;;;;;12.13;11.03;;;;;;;20.82;51.33;94439.41;6105548;28;109118;-68
2023/05/17 02:22:31;;;;;;;13.70;12.30;;;;;;;20.84;51.59;94439.91;6111229;28;108920;-71
2023/05/17 02:25:34;;;;;;;12.57;11.13;;;;;;;20.80;51.46;94438.94;6111377;28;108877;-71
2023/05/17 02:28:39;;;;;;;12.03;11.03;;;;;;;20.84;51.24;94447.88;6101631;28;108840;-71
2023/05/17 02:31:42;;;;;;;12.00;10.63;;;;;;;20.84;51.28;94439.91;6110260;28;108941;-71
2023/05/17 02:34:45;;;;;;;11.83;10.70;;;;;;;20.84;51.22;94449.75;6110235;28;108920;-71
2023/05/17 02:37:48;;;;;;;11.27;10.37;;;;;;;20.84;51.49;94450.56;6111787;28;108927;-71
2023/05/17 02:40:52;;;;;;;11.20;10.10;;;;;;;20.83;51.61;94454.28;6104760;28;109686;-70
2023/05/17 02:43:56;;;;;;;10.70;9.70;;;;;;;20.83;51.38;94446.28;6116015;28;108922;-69
2023/05/17 02:46:59;;;;;;;11.87;10.67;;;;;;;20.83;51.58;94454.28;6113704;28;108929;-69
2023/05/17 02:50:03;;;;;;;12.00;10.90;;;;;;;20.84;51.19;94469.16;6114046;28;108892;-70
2023/05/17 02:53:06;;;;;;;12.43;11.13;;;;;;;20.82;51.19;94476.66;6103757;28;109099;-70
2023/05/17 02:56:09;;;;;;;11.50;10.50;;;;;;;20.83;51.14;94478.22;6114895;28;109028;-70
2023/05/17 02:59:14;;;;;;;12.37;11.27;;;;;;;20.82;51.29;94470.53;6114305;28;108867;-70
2023/05/17 03:02:17;;;;;;;10.77;9.77;;;;;;;20.83;51.27;94477.44;6106607;28;109089;-72
2023/05/17 03:05:20;;;;;;;10.23;9.40;;;;;;;20.82;51.38;94487.28;6110914;28;108978;-70
2023/05/17 03:08:23;;;;;;;11.23;10.20;;;;;;;20.81;51.52;94487.59;6114127;28;108995;-70
2023/05/17 03:11:26;;;;;;;10.83;9.77;;;;;;;20.80;51.19;94491.34;6114542;28;108901;-71
2023/05/17 03:14:31;;;;;;;11.70;9.60;;;;;;;20.86;51.06;94492.78;6104173;28;109166;-71
2023/05/17 03:17:34;;;;;;;12.70;10.80;;;;;;;20.86;51.10;94493.56;6114969;28;108898;-70
2023/05/17 03:20:37;;;;;;;12.43;10.20;;;;;;;20.89;50.98;94502.78;6113823;28;108913;-71
2023/05/17 03:23:40;;;;;;;66.27;57.97;;;;;;;20.91;51.23;94506.72;6114830;28;108986;-70
2023/05/17 03:26:43;;;;;;;171.20;153.80;;;;;;;20.90;51.94;94499.81;6104067;28;108969;-71
2023/05/17 03:29:48;;;;;;;107.00;95.60;;;;;;;20.92;52.73;94504.81;6113929;28;108891;-72
2023/05/17 03:32:53;;;;;;;122.63;89.77;;;;;;;20.91;53.43;94490.75;6112579;28;108930;-67
2023/05/17 03:35:56;;;;;;;95.43;79.43;;;;;;;;;;6109159;28;109105;-67
2023/05/17 03:38:59;;;;;;;87.33;73.40;;;;;;;20.95;53.83;94492.78;6108013;28;109259;-67
2023/05/17 03:42:02;;;;;;;78.30;69.67;;;;;;;20.96;53.34;94503.09;6114019;28;108926;-67
2023/05/17 03:45:08;;;;;;;75.60;65.53;;;;;;;20.91;53.88;94493.41;6113972;28;108906;-67
2023/05/17 03:48:11;;;;;;;77.73;65.70;;;;;;;20.97;53.35;94501.22;6102005;28;109693;-70
2023/05/17 03:51:15;;;;;;;75.53;64.60;;;;;;;20.91;52.59;94496.06;6112216;28;109081;-70
2023/05/17 03:54:18;;;;;;;44.23;33.10;;;;;;;20.85;52.54;94501.84;6113289;28;108889;-68
2023/05/17 03:57:22;;;;;;;52.87;34.53;;;;;;;20.83;51.82;94501.34;6114844;28;110419;-68
2023/05/17 04:00:26;;;;;;;34.23;24.50;;;;;;;20.79;51.50;94501.19;6101709;28;109802;-67
2023/05/17 04:03:30;;;;;;;40.40;27.47;;;;;;;20.75;51.95;94513.56;6111658;28;108908;-66
2023/05/17 04:06:34;;;;;;;44.30;26.37;;;;;;;20.50;52.15;94500.97;6109485;28;108916;-67
2023/05/17 04:09:37;;;;;;;29.97;20.70;;;;;;;20.67;52.58;94511.69;6099534;28;108925;-67
2023/05/17 04:12:40;;;;;;;33.57;19.60;;;;;;;20.76;52.64;94511.69;6090892;28;109213;-68
2023/05/17 04:15:45;;;;;;;84.77;22.73;;;;;;;20.78;52.51;94523.56;6117234;28;108910;-68
2023/05/17 04:18:51;;;;;;;34.47;17.00;;;;;;;20.73;53.23;94514.97;6122735;28;108859;-65
2023/05/17 04:21:54;;;;;;;33.80;17.40;;;;;;;20.60;52.04;94516.66;6105557;28;108858;-66
2023/05/17 04:24:58;;;;;;;23.50;16.57;;;;;;;20.60;51.72;94517.44;6113465;28;108908;-62
2023/05/17 04:28:01;;;;;;;27.97;13.70;;;;;;;20.51;51.79;94508.66;6113758;28;109015;-63
2023/05/17 04:31:08;;;;;;;18.60;13.60;;;;;;;20.55;51.47;94514.13;6113326;28;108964;-64
2023/05/17 04:34:11;;;;;;;20.07;13.63;;;;;;;20.51;51.44;94510.53;6102730;28;110931;-64
2023/05/17 04:37:15;;;;;;;17.20;12.20;;;;;;;20.45;51.31;94498.47;6113461;28;108858;-64
2023/05/17 04:40:18;;;;;;;17.07;13.67;;;;;;;20.48;51.41;94503.94;6113213;28;108982;-64
2023/05/17 04:43:21;;;;;;;13.40;11.80;;;;;;;20.48;50.98;94500.50;6113244;28;109005;-65
2023/05/17 04:46:26;;;;;;;13.70;12.10;;;;;;;20.44;51.30;94503.00;6102941;28;109107;-68
2023/05/17 04:49:30;;;;;;;14.30;12.87;;;;;;;20.47;51.27;94501.59;6113582;28;108932;-66
2023/05/17 04:52:33;;;;;;;13.97;12.57;;;;;;;20.47;51.30;94504.25;6113597;28;108875;-67
2023/05/17 04:55:36;;;;;;;14.00;12.30;;;;;;;20.46;51.04;94498.16;6108673;28;108903;-67
2023/05/17 04:58:39;;;;;;;15.73;13.30;;;;;;;20.41;51.28;94500.94;6108198;28;108991;-66
2023/05/17 05:01:44;;;;;;;14.43;12.20;;;;;;;20.48;51.00;94503.16;6112874;28;108929;-67
2023/05/17 05:04:47;;;;;;;13.30;11.33;;;;;;;20.47;51.15;94502.38;6111845;28;108891;-67
2023/05/17 05:07:50;;;;;;;13.40;12.03;;;;;;;20.45;51.17;94503.78;6102451;28;109086;-66
2023/05/17 05:10:53;;;;;;;17.70;12.17;;;;;;;20.44;51.34;94508.31;6113021;28;108858;-66
2023/05/17 05:13:56;;;;;;;12.93;11.70;;;;;;;20.49;51.05;94516.13;6112733;28;108926;-66
2023/05/17 05:17:01;;;;;;;14.43;13.07;;;;;;;20.47;51.17;94517.53;6113141;28;108811;-65
2023/05/17 05:20:05;;;;;;;13.53;12.30;;;;;;;20.49;51.28;94515.34;6101797;28;109079;-66
2023/05/17 05:23:08;;;;;;;13.37;12.13;;;;;;;20.42;51.15;94505.19;6113224;28;108835;-67
2023/05/17 05:26:11;;;;;;;13.47;12.17;;;;;;;20.49;51.08;94510.81;6113483;28;108951;-66
2023/05/17 05:29:15;;;;;;;13.33;12.13;;;;;;;20.50;50.76;94516.91;6111921;28;108894;-66
2023/05/17 05:32:19;;;;;;;12.47;11.27;;;;;;;20.49;50.94;94515.34;6085896;28;109108;-67
2023/05/17 05:35:27;;;;;;;13.63;11.97;;;;;;;20.55;50.79;94516.78;6088318;28;108947;-68
2023/05/17 05:38:31;;;;;;;11.83;10.80;;;;;;;20.59;50.66;94520.41;6088811;28;108913;-69
2023/05/17 05:41:34;;;;;;;12.60;11.40;;;;;;;20.59;50.53;94515.88;6078180;28;108897;-68
2023/05/17 05:44:38;;;;;;;13.93;12.43;;;;;;;20.62;50.43;94517.13;6087957;28;108947;-68
2023/05/17 05:47:42;;;;;;;14.77;13.20;;;;;;;20.60;50.67;94512.09;6089084;28;108985;-68
2023/05/17 05:50:45;;;;;;;13.20;12.00;;;;;;;20.60;50.37;94503.34;6088212;28;108921;-66
2023/05/17 05:53:48;;;;;;;15.27;12.23;;;;;;;20.71;50.46;94527.78;6078098;28;108854;-64
2023/05/17 05:56:52;;;;;;;12.20;11.13;;;;;;;20.72;50.04;94518.72;6089067;28;108974;-64
2023/05/17 05:59:55;;;;;;;12.73;11.53;;;;;;;20.74;50.21;94530.59;6088221;28;108935;-63
2023/05/17 06:03:00;;;;;;;12.80;11.60;;;;;;;20.77;50.03;94551.25;6089574;28;108901;-63
2023/05/17 06:06:03;;;;;;;14.27;10.77;;;;;;;20.75;50.06;94547.34;6100252;28;108958;-64
2023/05/17 06:09:10;;;;;;;12.27;10.97;;;;;;;20.74;50.16;94551.88;6112956;28;109003;-63
2023/05/17 06:12:15;;;;;;;15.93;11.10;;;;;;;20.71;50.17;94549.84;6112491;28;108947;-63
2023/05/17 06:15:18;;;;;;;23.13;11.80;;;;;;;20.54;50.67;94547.13;6109999;28;109043;-64
2023/05/17 06:18:23;;;;;;;15.17;12.00;;;;;;;19.93;51.47;94551.31;6111970;28;108858;-64
2023/05/17 06:21:26;;;;;;;12.90;11.70;;;;;;;19.72;52.36;94546.50;6116474;28;108971;-64
2023/05/17 06:24:29;;;;;;;13.43;12.03;;;;;;;19.24;52.93;94558.75;6116462;28;109129;-64
2023/05/17 06:27:32;;;;;;;12.30;10.40;;;;;;;19.29;52.93;94556.75;6106206;28;109001;-64
2023/05/17 06:30:35;;;;;;;14.03;11.63;;;;;;;19.32;52.86;94550.06;6116092;28;108855;-63
2023/05/17 06:33:40;;;;;;;37.63;14.20;;;;;;;19.36;53.44;94554.50;6116059;28;108920;-63
2023/05/17 06:36:43;;;;;;;22.17;12.00;;;;;;;19.79;52.22;94547.94;6115417;28;108946;-62
2023/05/17 06:39:46;;;;;;;24.47;11.53;;;;;;;20.13;51.62;94544.72;6104638;28;109296;-65
2023/05/17 06:43:02;;;;;;;22.33;11.60;;;;;;;20.31;50.85;94554.34;6115748;28;108911;-64
2023/05/17 06:46:05;;;;;;;13.40;11.30;;;;;;;20.44;51.27;94553.50;6115551;28;108992;-66
2023/05/17 06:49:09;;;;;;;15.10;11.83;;;;;;;20.50;51.46;94549.63;6110524;28;108970;-65
2023/05/17 06:52:13;;;;;;;16.80;12.90;;;;;;;20.57;50.78;94551.81;6110209;28;109171;-66
2023/05/17 06:55:18;;;;;;;21.47;12.23;;;;;;;20.59;51.30;94541.66;6115538;28;108996;-66
2023/05/17 06:58:21;;;;;;;13.63;11.77;;;;;;;20.59;51.13;94550.41;6115649;28;108911;-66
2023/05/17 07:01:24;;;;;;;14.43;11.93;;;;;;;20.62;50.81;94554.34;6105276;28;108924;-66
2023/05/17 07:04:29;;;;;;;14.07;12.57;;;;;;;20.67;51.03;94556.06;6114845;28;108898;-74
2023/05/17 07:07:32;;;;;;;13.90;11.97;;;;;;;20.66;50.97;94563.25;6115084;28;108920;-73
2023/05/17 07:10:35;;;;;;;13.43;11.90;;;;;;;20.67;51.31;94559.53;6115679;28;108867;-77
2023/05/17 07:13:39;;;;;;;19.70;12.63;;;;;;;20.72;51.65;94567.34;6104435;28;108923;-76
2023/05/17 07:16:42;;;;;;;15.67;13.70;;;;;;;20.67;50.83;94556.88;6115792;28;108983;-72
2023/05/17 07:19:49;;;;;;;30.20;14.90;;;;;;;20.74;51.12;94565.16;6116678;28;108940;-81
2023/05/17 07:22:53;;;;;;;21.23;14.00;;;;;;;20.81;51.36;94564.72;6116629;28;108656;-71
2023/05/17 07:25:56;;;;;;;20.20;14.13;;;;;;;20.80;51.53;94574.56;6106230;28;109012;-78
2023/05/17 07:28:59;;;;;;;22.03;14.20;;;;;;;20.77;51.57;94569.88;6115722;28;108938;-75
2023/05/17 07:32:02;;;;;;;27.40;13.70;;;;;;;20.78;51.39;94574.09;6114690;28;108938;-77
2023/05/17 07:35:07;;;;;;;22.67;13.13;;;;;;;20.76;51.38;94573.63;6106020;28;108899;-64
2023/05/17 07:38:10;;;;;;;19.13;13.20;;;;;;;20.76;50.95;94576.28;6113863;28;109032;-63
2023/05/17 07:41:15;;;;;;;22.83;12.97;;;;;;;20.81;51.64;94581.44;6115786;28;108835;-75
2023/05/17 07:44:20;;;;;;;22.83;14.70;;;;;;;20.85;51.79;94579.75;6116009;28;108772;-75
2023/05/17 07:47:23;;;;;;;23.47;13.50;;;;;;;20.86;51.49;94573.34;6105318;28;109133;-75
2023/05/17 07:50:29;;;;;;;18.10;13.00;;;;;;;20.86;51.52;94570.69;6114892;28;108957;-76
2023/05/17 07:53:32;;;;;;;21.27;13.10;;;;;;;20.89;52.10;94572.72;6115653;28;108610;-75
2023/05/17 07:56:35;;;;;;;18.20;11.57;;;;;;;20.84;51.98;94569.44;6115261;28;109047;-73
2023/05/17 07:59:38;;;;;;;22.97;16.73;;;;;;;20.59;53.36;94549.63;6104222;28;108906;-77
2023/05/17 08:02:41;;;;;;;20.87;14.10;;;;;;;20.60;52.74;94570.59;6114383;28;108942;-75
2023/05/17 08:05:46;;;;;;;23.17;11.97;;;;;;;20.54;53.39;94574.50;6114685;28;108960;-77
2023/05/17 08:08:49;;;;;;;28.93;13.13;;;;;;;20.47;53.08;94568.81;6108355;28;108882;-63
2023/05/17 08:11:52;;;;;;;20.43;12.70;;;;;;;20.59;52.76;94566.38;6109409;28;108963;-64
2023/05/17 08:14:57;;;;;;;19.37;12.43;;;;;;;20.69;52.23;94570.63;6113561;28;108871;-62
2023/05/17 08:18:00;;;;;;;16.37;11.70;;;;;;;20.71;51.52;94555.16;6113624;28;109239;-59
2023/05/17 08:21:08;;;;;;;22.03;12.93;;;;;;;20.74;51.90;94562.50;6103890;28;109207;-62
2023/05/17 08:24:11;;;;;;;15.93;11.63;;;;;;;20.77;51.43;94564.53;6111450;28;108840;-62
2023/05/17 08:27:15;;;;;;;19.93;12.50;;;;;;;20.76;51.46;94546.25;6113788;28;108901;-62
2023/05/17 08:30:19;;;;;;;22.37;11.27;;;;;;;20.78;51.86;94560.00;6113826;28;109221;-61
2023/05/17 08:33:31;;;;;;;12.73;11.23;;;;;;;20.79;51.44;94554.38;6102715;28;108903;-62
2023/05/17 08:36:36;;;;;;;17.73;11.40;;;;;;;20.79;51.25;94553.59;6113138;28;108870;-61
2023/05/17 08:39:39;;;;;;;14.90;11.43;;;;;;;20.81;51.38;94565.50;6113177;28;109165;-61
2023/05/17 08:42:45;;;;;;;17.03;11.20;;;;;;;20.79;51.46;94564.22;6109018;28;108973;-61
2023/05/17 08:45:49;;;;;;;14.77;11.37;;;;;;;20.80;51.12;94557.81;6108111;28;108835;-61
2023/05/17 08:48:58;;;;;;;14.33;11.03;;;;;;;20.79;51.16;94554.38;6113516;28;108925;-61
2023/05/17 08:52:08;;;;;;;16.90;10.67;;;;;;;20.79;51.27;94554.38;6113756;28;108806;-62
2023/05/17 08:55:15;;;;;;;13.90;12.40;;;;;;;20.77;51.18;94548.59;6102216;28;109583;-62
2023/05/17 08:58:25;;;;;;;24.10;13.77;;;;;;;20.78;51.13;94547.50;6112940;28;108895;-62
2023/05/17 09:01:29;;;;;;;28.13;15.50;;;;;;;20.78;51.20;94558.13;6113067;28;108888;-62
2023/05/17 09:04:36;;;;;;;29.37;14.57;;;;;;;20.77;50.85;94559.22;6112644;28;108980;-61
2023/05/17 09:07:41;;;;;;;27.70;14.23;;;;;;;20.72;51.23;94540.78;6102243;28;108995;-61
2023/05/17 09:10:44;;;;;;;21.57;13.40;;;;;;;20.78;51.18;94550.16;6111819;28;108992;-62
2023/05/17 09:13:47;;;;;;;23.07;14.23;;;;;;;20.79;50.85;94545.63;6112956;28;108848;-61
2023/05/17 09:16:56;;;;;;;27.33;14.43;;;;;;;20.78;50.56;94544.84;6108549;28;109977;-61
2023/05/17 09:20:01;;;;;;;28.13;12.67;;;;;;;20.72;50.92;94535.44;6106670;28;108898;-61
2023/05/17 09:23:08;;;;;;;21.13;13.10;;;;;;;20.79;50.85;94549.06;6112634;28;108955;-64
2023/05/17 09:26:12;;;;;;;20.80;13.00;;;;;;;20.79;51.09;94549.06;6112438;28;108851;-63
2023/05/17 09:29:16;;;;;;;17.77;11.90;;;;;;;20.81;50.80;94546.09;6101064;28;108914;-64
2023/05/17 09:32:20;;;;;;;19.67;12.33;;;;;;;20.81;50.69;94538.13;6113025;28;108898;-64
2023/05/17 09:35:28;;;;;;;17.67;12.00;;;;;;;20.80;50.61;94537.34;6111830;28;108896;-64
2023/05/17 09:38:33;;;;;;;18.00;13.10;;;;;;;20.83;50.72;94547.34;6112768;28;109029;-64
2023/05/17 09:41:42;;;;;;;19.77;12.33;;;;;;;20.83;50.95;94549.22;6101530;28;108861;-64
2023/05/17 09:44:47;;;;;;;18.80;11.23;;;;;;;20.85;50.63;94560.38;6112549;28;108985;-64
2023/05/17 09:47:51;;;;;;;17.27;11.43;;;;;;;20.79;50.81;94549.06;6112584;28;108946;-65
2023/05/17 09:50:54;;;;;;;13.83;11.10;;;;;;;20.85;50.65;94558.50;6111921;28;109016;-64
2023/05/17 09:54:00;;;;;;;15.60;11.50;;;;;;;20.85;50.78;94558.50;6111597;28;108894;-64
2023/05/17 09:57:06;;;;;;;17.23;12.60;;;;;;;20.81;50.57;94560.16;6117027;28;108962;-65
2023/05/17 10:00:11;;;;;;;11.60;10.13;;;;;;;20.84;50.43;94556.91;6117089;28;108598;-65
2023/05/17 10:03:14;;;;;;;14.30;10.50;;;;;;;20.85;50.58;94555.81;6106224;28;108989;-64
2023/05/17 10:06:21;;;;;;;16.30;10.50;;;;;;;20.83;50.30;94549.22;6116065;28;108914;-65
2023/05/17 10:09:46;;;;;;;21.07;11.93;;;;;;;20.81;50.12;94546.88;6116714;28;108842;-64
2023/05/17 10:12:51;;;;;;;15.23;12.03;;;;;;;20.81;50.54;94548.75;6115474;28;108984;-63
2023/05/17 10:15:55;;;;;;;14.03;10.80;;;;;;;20.79;50.15;94545.63;6105250;28;109136;-63
2023/05/17 10:18:58;;;;;;;13.83;10.20;;;;;;;20.80;50.53;94533.91;6116489;28;109004;-63
2023/05/17 10:22:02;;;;;;;12.37;9.80;;;;;;;20.78;50.38;94528.88;6115734;28;108905;-64
2023/05/17 10:25:25;;;;;;;15.73;10.60;;;;;;;20.78;50.26;94518.25;6109299;28;109040;-64
2023/05/17 10:28:30;;;;;;;32.63;22.93;;;;;;;20.82;50.47;94503.22;6113919;28;108933;-71
2023/05/17 10:31:35;;;;;;;94.73;63.73;;;;;;;20.86;51.63;94490.13;6115749;28;108954;-73
2023/05/17 10:34:39;;;;;;;105.30;77.23;;;;;;;20.86;51.29;94480.28;6116561;28;108836;-66
2023/05/17 10:37:42;;;;;;;60.40;46.23;;;;;;;20.87;50.73;94473.84;6105482;28;110687;-67
2023/05/17 10:40:48;;;;;;;71.30;56.73;;;;;;;20.87;50.89;94462.44;6115407;28;108954;-66
2023/05/17 10:43:52;;;;;;;61.87;48.70;;;;;;;20.88;50.91;94448.81;6115078;28;108924;-67
2023/05/17 10:46:58;;;;;;;74.83;60.20;;;;;;;20.80;51.38;94430.97;6115147;28;108903;-66
2023/05/17 10:50:02;;;;;;;72.33;59.80;;;;;;;20.88;51.43;94432.88;6105791;28;108887;-65
2023/05/17 10:53:09;;;;;;;60.87;53.47;;;;;;;20.84;51.68;94413.31;6116176;28;108958;-66
2023/05/17 10:56:14;;;;;;;83.10;68.30;;;;;;;20.83;51.34;94398.44;6115477;28;108988;-66
2023/05/17 10:59:20;;;;;;;75.93;59.00;;;;;;;20.89;52.07;94399.84;6109648;28;109028;-67
2023/05/17 11:02:24;;;;;;;81.20;59.43;;;;;;;20.94;52.52;94404.22;6109954;28;108928;-67
2023/05/17 11:05:28;;;;;;;69.63;53.00;;;;;;;20.86;52.19;94391.72;6115727;28;109034;-72
2023/05/17 11:08:31;;;;;;;76.37;54.90;;;;;;;20.87;52.43;94396.72;6115592;28;108986;-65
2023/05/17 11:11:36;;;;;;;102.30;54.50;;;;;;;20.92;52.75;94395.78;6104770;28;108983;-64
2023/05/17 11:14:51;;;;;;;70.87;45.60;;;;;;;20.96;52.56;94406.56;6113975;28;108913;-64
2023/05/17 11:17:58;;;;;;;67.13;43.67;;;;;;;20.96;52.61;94419.88;6115756;28;108676;-64
2023/05/17 11:21:08;;;;;;;74.50;45.10;;;;;;;20.91;51.99;94418.16;6114561;28;108930;-64
2023/05/17 11:24:15;;;;;;;289.00;53.40;;;;;;;20.98;52.99;94430.97;6104500;28;109022;-64
2023/05/17 11:27:26;;;;;;;240.37;52.77;;;;;;;20.93;52.85;94439.91;6114677;28;108948;-64
2023/05/17 11:30:31;;;;;;;241.67;60.47;;;;;;;20.96;52.73;94455.22;6114512;28;108912;-71
2023/05/17 11:33:39;;;;;;;177.83;50.43;;;;;;;20.92;52.11;94465.72;6108643;28;108986;-70
2023/05/17 11:36:53;;;;;;;131.47;48.57;;;;;;;20.91;52.25;94466.03;6113265;28;108982;-70
2023/05/17 11:40:04;;;;;;;105.93;42.30;;;;;;;20.91;52.22;94474.78;6114897;28;108926;-70
2023/05/17 11:43:17;;;;;;;140.57;42.53;;;;;;;20.91;52.13;94474.00;6115486;28;108592;-68
2023/05/17 11:46:21;;;;;;;100.33;38.87;;;;;;;20.90;52.22;94480.44;6106246;28;109807;-63
2023/05/17 11:49:25;;;;;;;90.40;40.90;;;;;;;20.91;52.07;94482.00;6114552;28;108965;-62
2023/05/17 11:52:40;;;;;;;92.23;39.10;;;;;;;20.85;51.71;94467.28;6114832;28;109027;-63
2023/05/17 11:55:46;;;;;;;93.20;38.83;;;;;;;20.91;51.95;94477.44;6111838;28;108902;-64
2023/05/17 11:58:52;;;;;;;91.50;37.30;;;;;;;20.91;52.03;94489.97;6108514;28;108903;-63
2023/05/17 12:01:55;;;;;;;75.43;37.20;;;;;;;20.90;51.72;94485.75;6114503;28;109066;-63
2023/05/17 12:04:59;;;;;;;68.33;36.37;;;;;;;20.89;51.78;94482.31;6099354;28;109132;-63
2023/05/17 12:08:03;;;;;;;76.50;35.57;;;;;;;20.90;51.62;94485.75;6079783;28;108938;-63
2023/05/17 12:11:07;;;;;;;71.67;36.43;;;;;;;20.90;51.89;94491.84;6088980;28;108963;-64
2023/05/17 12:14:15;;;;;;;78.73;34.93;;;;;;;20.89;51.49;94486.84;6090125;28;108929;-63
2023/05/17 12:17:28;;;;;;;67.50;35.63;;;;;;;20.88;51.18;94485.28;6089135;28;108893;-63
2023/05/17 12:20:31;;;;;;;60.40;33.87;;;;;;;20.89;51.48;94487.63;6079546;28;108966;-64
2023/05/17 12:23:39;;;;;;;59.77;34.00;;;;;;;20.88;51.51;94486.06;6089773;28;109062;-63
2023/05/17 12:26:44;;;;;;;60.23;34.90;;;;;;;20.84;51.14;94466.50;6090291;28;108849;-64
2023/05/17 12:29:48;;;;;;;61.93;35.50;;;;;;;20.79;51.19;94461.31;6087849;28;109038;-64
2023/05/17 12:32:52;;;;;;;63.30;34.40;;;;;;;20.88;51.09;94472.75;6083997;28;108964;-63
2023/05/17 12:35:55;;;;;;;59.07;32.77;;;;;;;20.87;51.32;94467.75;6111701;28;108894;-64
2023/05/17 12:38:59;;;;;;;53.03;31.63;;;;;;;20.86;51.05;94468.84;6114176;28;108913;-63
2023/05/17 12:42:02;;;;;;;48.20;31.40;;;;;;;20.86;50.97;94461.66;6103916;28;109813;-63
2023/05/17 12:45:11;;;;;;;41.10;30.13;;;;;;;20.86;51.10;94455.56;6113220;28;109056;-63
2023/05/17 12:48:15;;;;;;;46.93;31.53;;;;;;;20.85;50.78;94456.66;6112878;28;108898;-63
2023/05/17 12:51:20;;;;;;;46.07;30.50;;;;;;;20.85;50.94;94451.34;6113910;28;109028;-63
2023/05/17 12:54:28;;;;;;;41.70;30.97;;;;;;;20.82;50.22;94449.28;6103121;28;109807;-63
2023/05/17 12:57:31;;;;;;;46.33;31.37;;;;;;;20.86;50.64;94451.00;6113549;28;108983;-64
2023/05/17 13:00:36;;;;;;;37.70;30.20;;;;;;;20.85;50.31;94456.66;6106833;28;108850;-63
2023/05/17 13:03:39;;;;;;;38.47;29.87;;;;;;;20.85;50.70;94465.41;6089234;28;109038;-63
2023/05/17 13:06:44;;;;;;;45.17;31.10;;;;;;;20.84;50.53;94466.50;6078982;28;108901;-63
2023/05/17 13:09:48;;;;;;;43.07;28.77;;;;;;;20.85;50.68;94470.72;6089157;28;108940;-63
2023/05/17 13:12:56;;;;;;;40.67;28.00;;;;;;;20.84;50.47;94469.16;6088795;28;108885;-63
2023/05/17 13:16:00;;;;;;;39.97;29.90;;;;;;;20.85;50.76;94464.63;6080171;28;109177;-68
2023/05/17 13:19:12;;;;;;;42.10;28.63;;;;;;;20.84;50.53;94469.16;6087688;28;108948;-63
2023/05/17 13:22:15;;;;;;;43.93;28.73;;;;;;;20.85;50.47;94469.94;6089142;28;109014;-63
2023/05/17 13:25:19;;;;;;;42.30;29.00;;;;;;;20.82;50.61;94460.69;6088750;28;108940;-63
2023/05/17 13:28:23;;;;;;;38.20;27.00;;;;;;;20.85;50.25;94467.28;6078852;28;108894;-63
2023/05/17 13:31:28;;;;;;;37.97;27.17;;;;;;;20.84;50.87;94458.53;6088973;28;109047;-64
2023/05/17 13:34:31;;;;;;;34.03;27.03;;;;;;;20.83;50.51;94456.94;6099902;28;108909;-64
2023/05/17 13:37:34;;;;;;;39.93;26.97;;;;;;;20.84;50.19;94468.38;6113131;28;108915;-63
2023/05/17 13:40:38;;;;;;;36.77;26.67;;;;;;;20.82;50.40;94468.66;6102942;28;109021;-63
2023/05/17 13:43:41;;;;;;;36.77;26.37;;;;;;;20.82;50.10;94465.22;6112978;28;108815;-64
2023/05/17 13:46:45;;;;;;;32.27;26.23;;;;;;;20.82;50.46;94465.22;6112914;28;109011;-63
2023/05/17 13:49:48;;;;;;;34.73;25.10;;;;;;;20.83;50.53;94472.09;6106982;28;109007;-64
2023/05/17 13:52:52;;;;;;;32.90;25.03;;;;;;;20.82;50.05;94468.66;6107812;28;109260;-63
2023/05/17 13:55:55;;;;;;;28.87;25.57;;;;;;;20.78;50.19;94467.72;6112615;28;108991;-63
2023/05/17 13:58:58;;;;;;;28.77;25.47;;;;;;;20.82;50.31;94471.31;6112475;28;108946;-64